sensor_id;sensor_type;location;lat;lon;timestamp;pressure;altitude;pressure_sealevel;temperature;humidity
40954;BME280;26686;50.130;8.710;2023-05-02T00:02:51;100212.25;;;16.34;52.43
40954;BME280;26686;50.130;8.710;2023-05-02T00:07:53;100209.50;;;16.25;52.79
40954;BME280;26686;50.130;8.710;2023-05-02T00:12:55;100212.50;;;16.22;52.75
40954;BME280;26686;50.130;8.710;2023-05-02T00:17:56;100201.38;;;16.09;53.02
40954;BME280;26686;50.130;8.710;2023-05-02T00:22:58;100215.84;;;16.16;52.67
40954;BME280;26686;50.130;8.710;2023-05-02T00:27:59;100203.91;;;16.11;52.69
40954;BME280;26686;50.130;8.710;2023-05-02T00:33:01;100212.50;;;16.14;53.08
40954;BME280;26686;50.130;8.710;2023-05-02T00:38:02;100222.22;;;16.15;52.80
40954;BME280;26686;50.130;8.710;2023-05-02T00:43:04;100211.28;;;16.08;53.17
40954;BME280;26686;50.130;8.710;2023-05-02T00:48:06;100221.34;;;16.06;53.62
40954;BME280;26686;50.130;8.710;2023-05-02T00:53:09;100213.47;;;16.05;53.39
40954;BME280;26686;50.130;8.710;2023-05-02T00:58:13;100212.75;;;16.03;53.51
40954;BME280;26686;50.130;8.710;2023-05-02T01:03:24;100223.81;;;16.00;53.65
40954;BME280;26686;50.130;8.710;2023-05-02T01:08:38;100222.75;;;15.93;54.09
40954;BME280;26686;50.130;8.710;2023-05-02T01:13:41;100229.56;;;15.79;54.33
40954;BME280;26686;50.130;8.710;2023-05-02T01:18:44;100237.56;;;15.70;54.59
40954;BME280;26686;50.130;8.710;2023-05-02T01:24:04;100239.16;;;15.63;55.02
40954;BME280;26686;50.130;8.710;2023-05-02T01:29:07;100232.00;;;15.46;55.22
40954;BME280;26686;50.130;8.710;2023-05-02T01:34:11;100243.25;;;15.49;55.40
40954;BME280;26686;50.130;8.710;2023-05-02T01:39:25;100239.97;;;15.37;55.47
40954;BME280;26686;50.130;8.710;2023-05-02T01:44:27;100258.59;;;15.39;55.61
40954;BME280;26686;50.130;8.710;2023-05-02T01:49:32;100270.47;;;15.36;55.82
40954;BME280;26686;50.130;8.710;2023-05-02T01:54:35;100267.94;;;15.35;55.80
40954;BME280;26686;50.130;8.710;2023-05-02T01:59:39;100265.09;;;15.36;56.15
40954;BME280;26686;50.130;8.710;2023-05-02T02:04:41;100274.13;;;15.35;56.26
40954;BME280;26686;50.130;8.710;2023-05-02T02:09:43;100281.00;;;15.30;56.33
40954;BME280;26686;50.130;8.710;2023-05-02T02:14:49;100278.75;;;15.25;56.92
40954;BME280;26686;50.130;8.710;2023-05-02T02:19:53;100284.41;;;15.22;56.74
40954;BME280;26686;50.130;8.710;2023-05-02T02:24:56;100280.38;;;15.18;57.13
40954;BME280;26686;50.130;8.710;2023-05-02T02:29:59;100299.44;;;15.15;57.49
40954;BME280;26686;50.130;8.710;2023-05-02T02:35:01;100296.22;;;15.11;57.25
40954;BME280;26686;50.130;8.710;2023-05-02T02:40:15;100305.47;;;14.99;57.81
40954;BME280;26686;50.130;8.710;2023-05-02T02:50:29;100312.22;;;15.03;58.47
40954;BME280;26686;50.130;8.710;2023-05-02T02:55:47;100311.50;;;15.01;58.86
40954;BME280;26686;50.130;8.710;2023-05-02T03:00:54;100309.72;;;14.92;58.70
40954;BME280;26686;50.130;8.710;2023-05-02T03:05:56;100310.75;;;14.91;58.71
40954;BME280;26686;50.130;8.710;2023-05-02T03:10:58;100319.22;;;14.86;58.76
40954;BME280;26686;50.130;8.710;2023-05-02T03:21:32;100331.09;;;14.83;59.39
40954;BME280;26686;50.130;8.710;2023-05-02T03:26:34;100339.81;;;14.85;59.44
40954;BME280;26686;50.130;8.710;2023-05-02T03:31:36;100354.75;;;14.88;59.45
40954;BME280;26686;50.130;8.710;2023-05-02T03:36:37;100354.63;;;14.90;59.90
40954;BME280;26686;50.130;8.710;2023-05-02T03:41:38;100359.81;;;14.91;59.84
40954;BME280;26686;50.130;8.710;2023-05-02T03:46:40;100359.97;;;14.90;59.70
40954;BME280;26686;50.130;8.710;2023-05-02T03:51:42;100379.41;;;14.92;59.45
40954;BME280;26686;50.130;8.710;2023-05-02T03:56:43;100372.44;;;14.81;59.30
40954;BME280;26686;50.130;8.710;2023-05-02T04:01:48;100380.31;;;14.82;59.15
40954;BME280;26686;50.130;8.710;2023-05-02T04:06:50;100396.09;;;14.85;59.18
40954;BME280;26686;50.130;8.710;2023-05-02T04:11:52;100389.47;;;14.80;59.15
40954;BME280;26686;50.130;8.710;2023-05-02T04:16:54;100397.28;;;14.73;59.60
40954;BME280;26686;50.130;8.710;2023-05-02T04:21:55;100401.25;;;14.69;59.57
40954;BME280;26686;50.130;8.710;2023-05-02T04:26:56;100407.88;;;14.65;59.58
40954;BME280;26686;50.130;8.710;2023-05-02T04:31:58;100421.69;;;14.70;59.64
40954;BME280;26686;50.130;8.710;2023-05-02T04:37:00;100437.47;;;14.73;59.64
40954;BME280;26686;50.130;8.710;2023-05-02T04:42:02;100448.88;;;14.75;59.79
40954;BME280;26686;50.130;8.710;2023-05-02T04:47:04;100462.41;;;14.83;58.89
40954;BME280;26686;50.130;8.710;2023-05-02T04:52:05;100463.28;;;14.64;59.60
40954;BME280;26686;50.130;8.710;2023-05-02T04:57:06;100473.00;;;14.56;59.91
40954;BME280;26686;50.130;8.710;2023-05-02T05:02:10;100486.69;;;14.72;59.32
40954;BME280;26686;50.130;8.710;2023-05-02T05:07:13;100487.81;;;14.60;59.16
40954;BME280;26686;50.130;8.710;2023-05-02T05:12:14;100492.19;;;14.51;59.87
40954;BME280;26686;50.130;8.710;2023-05-02T05:17:15;100505.28;;;14.54;60.20
40954;BME280;26686;50.130;8.710;2023-05-02T05:22:17;100508.41;;;14.59;60.33
40954;BME280;26686;50.130;8.710;2023-05-02T05:27:20;100518.59;;;14.65;59.91
40954;BME280;26686;50.130;8.710;2023-05-02T05:32:22;100530.41;;;14.63;59.77
40954;BME280;26686;50.130;8.710;2023-05-02T05:37:24;100533.50;;;14.68;59.70
40954;BME280;26686;50.130;8.710;2023-05-02T05:42:25;100542.13;;;14.62;59.42
40954;BME280;26686;50.130;8.710;2023-05-02T05:47:27;100553.50;;;14.54;59.41
40954;BME280;26686;50.130;8.710;2023-05-02T05:52:29;100573.28;;;14.63;59.22
40954;BME280;26686;50.130;8.710;2023-05-02T05:57:30;100577.78;;;14.72;59.12
40954;BME280;26686;50.130;8.710;2023-05-02T06:02:32;100566.22;;;14.62;59.86
40954;BME280;26686;50.130;8.710;2023-05-02T06:07:33;100572.28;;;14.74;59.67
40954;BME280;26686;50.130;8.710;2023-05-02T06:12:35;100586.13;;;14.79;59.76
40954;BME280;26686;50.130;8.710;2023-05-02T06:17:36;100582.81;;;14.95;59.63
40954;BME280;26686;50.130;8.710;2023-05-02T06:22:37;100577.59;;;14.93;58.98
40954;BME280;26686;50.130;8.710;2023-05-02T06:27:40;100587.63;;;14.91;58.71
40954;BME280;26686;50.130;8.710;2023-05-02T06:32:42;100607.53;;;14.89;58.79
40954;BME280;26686;50.130;8.710;2023-05-02T06:37:44;100616.97;;;14.93;58.63
40954;BME280;26686;50.130;8.710;2023-05-02T06:42:45;100628.00;;;14.90;58.77
40954;BME280;26686;50.130;8.710;2023-05-02T06:47:47;100621.34;;;15.03;58.60
40954;BME280;26686;50.130;8.710;2023-05-02T06:52:48;100626.25;;;15.08;58.43
40954;BME280;26686;50.130;8.710;2023-05-02T06:57:50;100634.44;;;15.16;58.24
40954;BME280;26686;50.130;8.710;2023-05-02T07:02:52;100637.25;;;15.25;58.24
40954;BME280;26686;50.130;8.710;2023-05-02T07:07:54;100639.19;;;15.42;57.69
40954;BME280;26686;50.130;8.710;2023-05-02T07:12:56;100647.75;;;15.55;57.40
40954;BME280;26686;50.130;8.710;2023-05-02T07:17:57;100647.59;;;15.57;56.96
40954;BME280;26686;50.130;8.710;2023-05-02T07:22:59;100655.22;;;15.62;56.28
40954;BME280;26686;50.130;8.710;2023-05-02T07:28:01;100666.25;;;15.59;56.04
40954;BME280;26686;50.130;8.710;2023-05-02T07:33:02;100667.81;;;15.51;56.65
40954;BME280;26686;50.130;8.710;2023-05-02T07:38:04;100673.84;;;15.63;56.87
40954;BME280;26686;50.130;8.710;2023-05-02T07:43:05;100677.97;;;15.58;55.47
40954;BME280;26686;50.130;8.710;2023-05-02T07:48:08;100678.09;;;15.56;55.01
40954;BME280;26686;50.130;8.710;2023-05-02T07:53:09;100675.88;;;15.42;55.77
40954;BME280;26686;50.130;8.710;2023-05-02T07:58:11;100687.59;;;15.41;56.46
40954;BME280;26686;50.130;8.710;2023-05-02T08:03:13;100699.16;;;15.51;56.77
40954;BME280;26686;50.130;8.710;2023-05-02T08:08:14;100699.47;;;15.38;56.12
40954;BME280;26686;50.130;8.710;2023-05-02T08:13:16;100706.69;;;15.28;56.99
40954;BME280;26686;50.130;8.710;2023-05-02T08:18:18;100705.81;;;15.37;55.84
40954;BME280;26686;50.130;8.710;2023-05-02T08:23:19;100712.63;;;15.31;56.24
40954;BME280;26686;50.130;8.710;2023-05-02T08:28:21;100708.34;;;15.38;55.71
40954;BME280;26686;50.130;8.710;2023-05-02T08:33:23;100720.19;;;15.55;54.93
40954;BME280;26686;50.130;8.710;2023-05-02T08:38:25;100726.78;;;15.71;55.05
40954;BME280;26686;50.130;8.710;2023-05-02T08:43:27;100726.91;;;15.79;54.65
40954;BME280;26686;50.130;8.710;2023-05-02T08:48:30;100743.88;;;15.70;54.91
40954;BME280;26686;50.130;8.710;2023-05-02T08:53:36;100743.47;;;15.65;55.03
40954;BME280;26686;50.130;8.710;2023-05-02T08:58:38;100747.63;;;15.30;55.31
40954;BME280;26686;50.130;8.710;2023-05-02T09:03:42;100755.09;;;15.16;56.06
40954;BME280;26686;50.130;8.710;2023-05-02T09:08:46;100761.56;;;15.43;56.10
40954;BME280;26686;50.130;8.710;2023-05-02T09:13:51;100768.47;;;15.75;54.74
40954;BME280;26686;50.130;8.710;2023-05-02T09:18:57;100777.91;;;15.89;54.43
40954;BME280;26686;50.130;8.710;2023-05-02T09:23:59;100774.91;;;16.02;54.47
40954;BME280;26686;50.130;8.710;2023-05-02T09:29:02;100784.41;;;15.96;53.93
40954;BME280;26686;50.130;8.710;2023-05-02T09:34:12;100770.94;;;16.06;53.38
40954;BME280;26686;50.130;8.710;2023-05-02T09:39:15;100774.53;;;16.52;52.41
40954;BME280;26686;50.130;8.710;2023-05-02T09:44:20;100773.97;;;16.76;50.95
40954;BME280;26686;50.130;8.710;2023-05-02T09:49:38;100774.91;;;17.13;49.82
40954;BME280;26686;50.130;8.710;2023-05-02T09:54:41;100776.34;;;17.70;47.84
40954;BME280;26686;50.130;8.710;2023-05-02T09:59:55;100775.03;;;17.47;48.09
40954;BME280;26686;50.130;8.710;2023-05-02T10:04:58;100780.06;;;17.69;48.49
40954;BME280;26686;50.130;8.710;2023-05-02T10:10:02;100768.34;;;18.30;47.53
40954;BME280;26686;50.130;8.710;2023-05-02T10:15:04;100771.22;;;18.80;45.64
40954;BME280;26686;50.130;8.710;2023-05-02T10:20:09;100780.91;;;18.56;46.66
40954;BME280;26686;50.130;8.710;2023-05-02T10:25:16;100781.09;;;17.76;48.13
40954;BME280;26686;50.130;8.710;2023-05-02T10:30:18;100778.66;;;18.09;47.78
40954;BME280;26686;50.130;8.710;2023-05-02T10:35:21;100770.91;;;18.40;46.77
40954;BME280;26686;50.130;8.710;2023-05-02T10:40:24;100757.78;;;19.62;44.27
40954;BME280;26686;50.130;8.710;2023-05-02T10:45:33;100766.72;;;19.71;43.72
40954;BME280;26686;50.130;8.710;2023-05-02T10:50:46;100766.56;;;19.97;43.30
40954;BME280;26686;50.130;8.710;2023-05-02T11:06:31;100732.94;;;21.25;40.31
40954;BME280;26686;50.130;8.710;2023-05-02T11:11:41;100727.38;;;21.95;38.94
40954;BME280;26686;50.130;8.710;2023-05-02T11:17:10;100740.06;;;21.79;37.78
40954;BME280;26686;50.130;8.710;2023-05-02T11:37:58;100731.09;;;23.33;33.75
40954;BME280;26686;50.130;8.710;2023-05-02T11:43:00;100715.84;;;22.52;36.13
40954;BME280;26686;50.130;8.710;2023-05-02T11:48:14;100718.50;;;21.71;34.81
40954;BME280;26686;50.130;8.710;2023-05-02T11:53:26;100726.28;;;21.51;36.30
40954;BME280;26686;50.130;8.710;2023-05-02T11:58:31;100720.53;;;21.31;36.91
40954;BME280;26686;50.130;8.710;2023-05-02T12:03:33;100729.81;;;21.13;36.88
40954;BME280;26686;50.130;8.710;2023-05-02T12:08:35;100737.63;;;20.85;37.36
40954;BME280;26686;50.130;8.710;2023-05-02T12:13:47;100739.00;;;20.49;37.92
40954;BME280;26686;50.130;8.710;2023-05-02T12:18:49;100744.53;;;20.17;38.55
40954;BME280;26686;50.130;8.710;2023-05-02T12:23:51;100746.16;;;19.45;39.63
40954;BME280;26686;50.130;8.710;2023-05-02T12:28:53;100750.38;;;19.64;40.10
40954;BME280;26686;50.130;8.710;2023-05-02T12:33:55;100754.09;;;19.55;39.28
40954;BME280;26686;50.130;8.710;2023-05-02T12:38:58;100755.13;;;19.46;40.59
40954;BME280;26686;50.130;8.710;2023-05-02T12:44:00;100748.34;;;19.83;39.42
40954;BME280;26686;50.130;8.710;2023-05-02T12:49:06;100754.34;;;20.49;38.70
40954;BME280;26686;50.130;8.710;2023-05-02T12:54:19;100755.56;;;21.09;37.59
40954;BME280;26686;50.130;8.710;2023-05-02T12:59:28;100754.56;;;21.48;36.70
40954;BME280;26686;50.130;8.710;2023-05-02T13:04:37;100772.25;;;21.36;36.60
40954;BME280;26686;50.130;8.710;2023-05-02T13:09:39;100769.63;;;21.28;37.48
40954;BME280;26686;50.130;8.710;2023-05-02T13:14:41;100772.56;;;20.95;38.52
40954;BME280;26686;50.130;8.710;2023-05-02T13:19:42;100783.03;;;20.66;38.33
40954;BME280;26686;50.130;8.710;2023-05-02T13:24:54;100783.50;;;20.39;38.94
40954;BME280;26686;50.130;8.710;2023-05-02T13:29:56;100782.56;;;20.07;38.98
40954;BME280;26686;50.130;8.710;2023-05-02T13:34:57;100783.81;;;19.88;40.62
40954;BME280;26686;50.130;8.710;2023-05-02T13:39:59;100777.19;;;19.41;40.72
40954;BME280;26686;50.130;8.710;2023-05-02T13:45:01;100780.41;;;19.20;41.10
40954;BME280;26686;50.130;8.710;2023-05-02T13:50:06;100785.88;;;18.77;41.66
40954;BME280;26686;50.130;8.710;2023-05-02T13:55:08;100785.19;;;18.83;41.78
40954;BME280;26686;50.130;8.710;2023-05-02T14:00:10;100773.97;;;18.96;41.32
40954;BME280;26686;50.130;8.710;2023-05-02T14:05:12;100776.00;;;19.02;40.53
40954;BME280;26686;50.130;8.710;2023-05-02T14:10:13;100793.22;;;19.18;41.14
40954;BME280;26686;50.130;8.710;2023-05-02T14:15:15;100779.56;;;19.36;40.44
40954;BME280;26686;50.130;8.710;2023-05-02T14:20:16;100780.75;;;19.50;38.82
40954;BME280;26686;50.130;8.710;2023-05-02T14:25:18;100779.41;;;19.29;39.31
40954;BME280;26686;50.130;8.710;2023-05-02T14:30:20;100775.34;;;19.33;39.77
40954;BME280;26686;50.130;8.710;2023-05-02T14:35:22;100779.06;;;19.40;39.21
40954;BME280;26686;50.130;8.710;2023-05-02T14:40:23;100783.47;;;19.25;38.85
40954;BME280;26686;50.130;8.710;2023-05-02T14:45:25;100786.50;;;19.38;38.71
40954;BME280;26686;50.130;8.710;2023-05-02T14:50:26;100794.59;;;19.38;39.43
40954;BME280;26686;50.130;8.710;2023-05-02T14:55:28;100798.47;;;18.68;39.74
40954;BME280;26686;50.130;8.710;2023-05-02T15:00:29;100810.81;;;18.79;39.40
40954;BME280;26686;50.130;8.710;2023-05-02T15:05:31;100801.53;;;18.73;38.97
40954;BME280;26686;50.130;8.710;2023-05-02T15:10:38;100815.63;;;18.59;39.36
40954;BME280;26686;50.130;8.710;2023-05-02T15:15:40;100814.59;;;18.52;40.59
40954;BME280;26686;50.130;8.710;2023-05-02T15:20:41;100820.13;;;18.50;40.53
40954;BME280;26686;50.130;8.710;2023-05-02T15:25:44;100824.34;;;18.18;40.74
40954;BME280;26686;50.130;8.710;2023-05-02T15:30:46;100833.75;;;18.14;41.51
40954;BME280;26686;50.130;8.710;2023-05-02T15:35:54;100835.78;;;18.12;41.36
40954;BME280;26686;50.130;8.710;2023-05-02T15:40:57;100844.03;;;18.11;41.29
40954;BME280;26686;50.130;8.710;2023-05-02T15:45:59;100841.63;;;18.08;40.99
40954;BME280;26686;50.130;8.710;2023-05-02T15:51:01;100851.06;;;18.12;41.28
40954;BME280;26686;50.130;8.710;2023-05-02T15:56:06;100842.31;;;18.10;40.44
40954;BME280;26686;50.130;8.710;2023-05-02T16:01:08;100854.56;;;18.30;40.25
40954;BME280;26686;50.130;8.710;2023-05-02T16:06:09;100856.75;;;17.82;40.06
40954;BME280;26686;50.130;8.710;2023-05-02T16:11:11;100858.28;;;17.85;40.30
40954;BME280;26686;50.130;8.710;2023-05-02T16:16:12;100865.59;;;18.19;39.99
40954;BME280;26686;50.130;8.710;2023-05-02T16:21:14;100869.72;;;18.31;38.96
40954;BME280;26686;50.130;8.710;2023-05-02T16:26:15;100866.03;;;18.32;39.07
40954;BME280;26686;50.130;8.710;2023-05-02T16:31:17;100867.25;;;18.12;39.53
40954;BME280;26686;50.130;8.710;2023-05-02T16:36:18;100866.72;;;18.08;39.44
40954;BME280;26686;50.130;8.710;2023-05-02T16:41:19;100866.81;;;17.98;39.86
40954;BME280;26686;50.130;8.710;2023-05-02T16:46:21;100867.66;;;17.81;40.71
40954;BME280;26686;50.130;8.710;2023-05-02T16:51:23;100882.38;;;17.69;40.38
40954;BME280;26686;50.130;8.710;2023-05-02T16:56:24;100879.38;;;17.72;41.75
40954;BME280;26686;50.130;8.710;2023-05-02T17:01:25;100875.28;;;17.67;42.91
40954;BME280;26686;50.130;8.710;2023-05-02T17:06:27;100873.91;;;17.63;41.11
40954;BME280;26686;50.130;8.710;2023-05-02T17:11:28;100890.38;;;17.60;41.51
40954;BME280;26686;50.130;8.710;2023-05-02T17:16:30;100895.69;;;17.52;42.58
40954;BME280;26686;50.130;8.710;2023-05-02T17:21:31;100899.53;;;17.49;43.08
40954;BME280;26686;50.130;8.710;2023-05-02T17:26:33;100906.50;;;17.42;43.54
40954;BME280;26686;50.130;8.710;2023-05-02T17:31:35;100919.03;;;17.34;42.90
40954;BME280;26686;50.130;8.710;2023-05-02T17:36:38;100919.94;;;17.24;42.98
40954;BME280;26686;50.130;8.710;2023-05-02T17:41:42;100922.41;;;17.18;43.09
40954;BME280;26686;50.130;8.710;2023-05-02T17:46:43;100937.53;;;16.91;43.35
40954;BME280;26686;50.130;8.710;2023-05-02T17:51:45;100935.13;;;16.78;45.53
40954;BME280;26686;50.130;8.710;2023-05-02T17:56:46;100937.03;;;16.58;46.84
40954;BME280;26686;50.130;8.710;2023-05-02T18:01:50;100951.50;;;16.47;47.44
40954;BME280;26686;50.130;8.710;2023-05-02T18:06:53;100959.03;;;16.24;47.62
40954;BME280;26686;50.130;8.710;2023-05-02T18:11:54;100964.72;;;16.11;47.64
40954;BME280;26686;50.130;8.710;2023-05-02T18:16:58;100955.81;;;16.01;47.34
40954;BME280;26686;50.130;8.710;2023-05-02T18:21:59;100969.34;;;15.89;47.91
40954;BME280;26686;50.130;8.710;2023-05-02T18:27:01;100976.94;;;15.74;47.95
40954;BME280;26686;50.130;8.710;2023-05-02T18:32:03;100984.00;;;15.66;48.29
40954;BME280;26686;50.130;8.710;2023-05-02T18:37:04;100984.81;;;15.47;48.81
40954;BME280;26686;50.130;8.710;2023-05-02T18:42:07;101000.06;;;15.46;49.04
40954;BME280;26686;50.130;8.710;2023-05-02T18:47:08;100995.63;;;15.35;49.09
40954;BME280;26686;50.130;8.710;2023-05-02T18:52:10;101003.34;;;15.19;49.15
40954;BME280;26686;50.130;8.710;2023-05-02T18:57:12;101019.41;;;15.09;49.28
40954;BME280;26686;50.130;8.710;2023-05-02T19:02:13;101025.59;;;15.00;49.55
40954;BME280;26686;50.130;8.710;2023-05-02T19:07:15;101035.28;;;14.91;49.30
40954;BME280;26686;50.130;8.710;2023-05-02T19:12:17;101045.47;;;14.76;49.58
40954;BME280;26686;50.130;8.710;2023-05-02T19:17:18;101057.75;;;14.58;50.29
40954;BME280;26686;50.130;8.710;2023-05-02T19:22:20;101062.16;;;14.47;50.57
40954;BME280;26686;50.130;8.710;2023-05-02T19:27:22;101075.59;;;14.36;50.92
40954;BME280;26686;50.130;8.710;2023-05-02T19:32:23;101086.25;;;14.26;51.02
40954;BME280;26686;50.130;8.710;2023-05-02T19:37:25;101084.44;;;14.15;51.10
40954;BME280;26686;50.130;8.710;2023-05-02T19:42:29;101098.97;;;14.02;51.03
40954;BME280;26686;50.130;8.710;2023-05-02T19:47:31;101099.09;;;14.00;50.44
40954;BME280;26686;50.130;8.710;2023-05-02T19:52:32;101113.81;;;13.94;50.88
40954;BME280;26686;50.130;8.710;2023-05-02T19:57:34;101115.69;;;13.83;49.71
40954;BME280;26686;50.130;8.710;2023-05-02T20:02:36;101116.63;;;13.70;48.65
40954;BME280;26686;50.130;8.710;2023-05-02T20:07:37;101123.69;;;13.60;48.00
40954;BME280;26686;50.130;8.710;2023-05-02T20:12:39;101119.06;;;13.51;47.67
40954;BME280;26686;50.130;8.710;2023-05-02T20:17:45;101130.78;;;13.50;47.72
40954;BME280;26686;50.130;8.710;2023-05-02T20:22:47;101128.91;;;13.39;47.60
40954;BME280;26686;50.130;8.710;2023-05-02T20:27:49;101134.09;;;13.18;47.83
40954;BME280;26686;50.130;8.710;2023-05-02T20:32:51;101146.00;;;13.14;47.81
40954;BME280;26686;50.130;8.710;2023-05-02T20:37:52;101155.00;;;13.13;47.76
40954;BME280;26686;50.130;8.710;2023-05-02T20:42:54;101160.56;;;13.09;48.05
40954;BME280;26686;50.130;8.710;2023-05-02T20:47:55;101159.34;;;13.02;48.15
40954;BME280;26686;50.130;8.710;2023-05-02T20:52:57;101166.88;;;12.97;48.49
40954;BME280;26686;50.130;8.710;2023-05-02T20:57:58;101163.66;;;12.92;48.39
40954;BME280;26686;50.130;8.710;2023-05-02T21:02:59;101162.00;;;12.91;48.94
40954;BME280;26686;50.130;8.710;2023-05-02T21:08:01;101173.81;;;12.76;49.18
40954;BME280;26686;50.130;8.710;2023-05-02T21:13:02;101182.53;;;12.66;49.19
40954;BME280;26686;50.130;8.710;2023-05-02T21:18:04;101183.94;;;12.59;49.70
40954;BME280;26686;50.130;8.710;2023-05-02T21:23:07;101179.06;;;12.53;49.75
40954;BME280;26686;50.130;8.710;2023-05-02T21:28:11;101179.63;;;12.45;49.26
40954;BME280;26686;50.130;8.710;2023-05-02T21:33:12;101184.03;;;12.33;49.89
40954;BME280;26686;50.130;8.710;2023-05-02T21:38:17;101188.44;;;12.34;49.66
40954;BME280;26686;50.130;8.710;2023-05-02T21:43:18;101180.34;;;12.23;49.61
40954;BME280;26686;50.130;8.710;2023-05-02T21:48:20;101198.50;;;12.18;49.79
40954;BME280;26686;50.130;8.710;2023-05-02T21:53:21;101191.19;;;12.09;50.02
40954;BME280;26686;50.130;8.710;2023-05-02T21:58:23;101204.84;;;12.04;49.95
40954;BME280;26686;50.130;8.710;2023-05-02T22:03:26;101192.03;;;11.96;49.99
40954;BME280;26686;50.130;8.710;2023-05-02T22:08:27;101204.41;;;11.97;50.06
40954;BME280;26686;50.130;8.710;2023-05-02T22:13:29;101184.03;;;11.71;50.11
40954;BME280;26686;50.130;8.710;2023-05-02T22:18:30;101192.91;;;11.71;50.03
40954;BME280;26686;50.130;8.710;2023-05-02T22:23:31;101201.03;;;11.70;50.25
40954;BME280;26686;50.130;8.710;2023-05-02T22:28:33;101201.25;;;11.66;50.24
40954;BME280;26686;50.130;8.710;2023-05-02T22:33:35;101205.72;;;11.53;50.54
40954;BME280;26686;50.130;8.710;2023-05-02T22:38:37;101202.94;;;11.42;51.02
40954;BME280;26686;50.130;8.710;2023-05-02T22:43:41;101198.03;;;11.36;50.92
40954;BME280;26686;50.130;8.710;2023-05-02T22:48:42;101193.13;;;11.29;50.80
40954;BME280;26686;50.130;8.710;2023-05-02T22:53:44;101207.81;;;11.22;51.08
40954;BME280;26686;50.130;8.710;2023-05-02T22:58:45;101221.34;;;11.19;50.98
40954;BME280;26686;50.130;8.710;2023-05-02T23:03:49;101220.81;;;11.14;51.02
40954;BME280;26686;50.130;8.710;2023-05-02T23:08:52;101221.13;;;11.09;51.14
40954;BME280;26686;50.130;8.710;2023-05-02T23:13:53;101232.75;;;11.08;51.04
40954;BME280;26686;50.130;8.710;2023-05-02T23:18:54;101216.41;;;11.00;51.48
40954;BME280;26686;50.130;8.710;2023-05-02T23:23:56;101228.34;;;10.94;51.30
40954;BME280;26686;50.130;8.710;2023-05-02T23:28:57;101215.41;;;10.88;51.62
40954;BME280;26686;50.130;8.710;2023-05-02T23:33:59;101217.13;;;10.89;51.35
40954;BME280;26686;50.130;8.710;2023-05-02T23:39:00;101218.53;;;10.68;51.78
40954;BME280;26686;50.130;8.710;2023-05-02T23:44:03;101230.34;;;10.64;52.02
40954;BME280;26686;50.130;8.710;2023-05-02T23:49:04;101232.28;;;10.47;52.00
40954;BME280;26686;50.130;8.710;2023-05-02T23:54:06;101228.28;;;10.54;51.81
40954;BME280;26686;50.130;8.710;2023-05-02T23:59:07;101233.13;;;10.48;51.81
